sensor_id;sensor_type;location;lat;lon;timestamp;P1;durP1;ratioP1;P2;durP2;ratioP2
20000;SDS011;10161;41.188;-8.642;2023-12-14T00:00:41;7.17;;;5.70;;
20000;SDS011;10161;41.188;-8.642;2023-12-14T00:03:08;6.73;;;5.47;;
20000;SDS011;10161;41.188;-8.642;2023-12-14T00:05:35;6.40;;;5.80;;
20000;SDS011;10161;41.188;-8.642;2023-12-14T00:08:04;8.57;;;6.00;;
20000;SDS011;10161;41.188;-8.642;2023-12-14T00:10:30;6.70;;;5.53;;
20000;SDS011;10161;41.188;-8.642;2023-12-14T00:12:57;6.37;;;5.77;;
20000;SDS011;10161;41.188;-8.642;2023-12-14T00:15:24;6.53;;;5.80;;
20000;SDS011;10161;41.188;-8.642;2023-12-14T00:17:51;7.00;;;5.80;;
20000;SDS011;10161;41.188;-8.642;2023-12-14T00:20:18;6.13;;;5.53;;
20000;SDS011;10161;41.188;-8.642;2023-12-14T00:22:45;6.60;;;5.53;;
20000;SDS011;10161;41.188;-8.642;2023-12-14T00:25:14;7.33;;;5.80;;
20000;SDS011;10161;41.188;-8.642;2023-12-14T00:27:41;7.07;;;5.73;;
20000;SDS011;10161;41.188;-8.642;2023-12-14T00:30:08;8.40;;;5.73;;
20000;SDS011;10161;41.188;-8.642;2023-12-14T00:32:36;6.80;;;6.10;;
20000;SDS011;10161;41.188;-8.642;2023-12-14T00:35:03;6.33;;;5.73;;
20000;SDS011;10161;41.188;-8.642;2023-12-14T00:37:31;9.30;;;6.30;;
20000;SDS011;10161;41.188;-8.642;2023-12-14T00:39:58;7.00;;;5.60;;
20000;SDS011;10161;41.188;-8.642;2023-12-14T00:42:26;7.67;;;5.40;;
20000;SDS011;10161;41.188;-8.642;2023-12-14T00:44:53;6.23;;;5.00;;
20000;SDS011;10161;41.188;-8.642;2023-12-14T00:47:20;5.43;;;4.90;;
20000;SDS011;10161;41.188;-8.642;2023-12-14T00:49:47;7.73;;;5.40;;
20000;SDS011;10161;41.188;-8.642;2023-12-14T00:52:14;5.83;;;5.23;;
20000;SDS011;10161;41.188;-8.642;2023-12-14T00:54:41;5.70;;;5.00;;
20000;SDS011;10161;41.188;-8.642;2023-12-14T00:57:07;5.87;;;5.17;;
20000;SDS011;10161;41.188;-8.642;2023-12-14T00:59:36;6.17;;;5.57;;
20000;SDS011;10161;41.188;-8.642;2023-12-14T01:02:03;5.80;;;5.03;;
20000;SDS011;10161;41.188;-8.642;2023-12-14T01:04:30;5.87;;;5.27;;
20000;SDS011;10161;41.188;-8.642;2023-12-14T01:06:57;6.23;;;5.27;;
20000;SDS011;10161;41.188;-8.642;2023-12-14T01:09:24;5.93;;;5.07;;
20000;SDS011;10161;41.188;-8.642;2023-12-14T01:11:51;6.70;;;5.27;;
20000;SDS011;10161;41.188;-8.642;2023-12-14T01:14:18;5.40;;;4.90;;
20000;SDS011;10161;41.188;-8.642;2023-12-14T01:16:46;6.70;;;5.70;;
20000;SDS011;10161;41.188;-8.642;2023-12-14T01:19:13;7.80;;;6.00;;
20000;SDS011;10161;41.188;-8.642;2023-12-14T01:21:40;6.20;;;5.30;;
20000;SDS011;10161;41.188;-8.642;2023-12-14T01:24:07;6.10;;;5.50;;
20000;SDS011;10161;41.188;-8.642;2023-12-14T01:26:34;6.13;;;5.27;;
20000;SDS011;10161;41.188;-8.642;2023-12-14T01:29:01;5.60;;;5.10;;
20000;SDS011;10161;41.188;-8.642;2023-12-14T01:31:28;5.77;;;4.97;;
20000;SDS011;10161;41.188;-8.642;2023-12-14T01:33:57;7.43;;;5.33;;
20000;SDS011;10161;41.188;-8.642;2023-12-14T01:36:24;7.00;;;5.60;;
20000;SDS011;10161;41.188;-8.642;2023-12-14T01:38:52;6.03;;;5.23;;
20000;SDS011;10161;41.188;-8.642;2023-12-14T01:41:19;5.57;;;4.80;;
20000;SDS011;10161;41.188;-8.642;2023-12-14T01:43:46;5.90;;;5.30;;
20000;SDS011;10161;41.188;-8.642;2023-12-14T01:46:13;6.70;;;5.53;;
20000;SDS011;10161;41.188;-8.642;2023-12-14T01:48:41;5.47;;;4.97;;
20000;SDS011;10161;41.188;-8.642;2023-12-14T01:51:09;6.17;;;5.57;;
20000;SDS011;10161;41.188;-8.642;2023-12-14T01:53:36;6.70;;;6.00;;
20000;SDS011;10161;41.188;-8.642;2023-12-14T01:56:04;6.07;;;4.93;;
20000;SDS011;10161;41.188;-8.642;2023-12-14T01:58:31;5.87;;;5.27;;
20000;SDS011;10161;41.188;-8.642;2023-12-14T02:01:00;5.77;;;5.17;;
20000;SDS011;10161;41.188;-8.642;2023-12-14T02:03:30;6.10;;;5.50;;
20000;SDS011;10161;41.188;-8.642;2023-12-14T02:05:57;5.77;;;4.93;;
20000;SDS011;10161;41.188;-8.642;2023-12-14T02:08:26;5.23;;;4.73;;
20000;SDS011;10161;41.188;-8.642;2023-12-14T02:10:54;5.80;;;5.20;;
20000;SDS011;10161;41.188;-8.642;2023-12-14T02:13:21;5.20;;;4.70;;
20000;SDS011;10161;41.188;-8.642;2023-12-14T02:15:48;5.93;;;5.33;;
20000;SDS011;10161;41.188;-8.642;2023-12-14T02:18:15;5.90;;;5.30;;
20000;SDS011;10161;41.188;-8.642;2023-12-14T02:20:42;6.23;;;5.60;;
20000;SDS011;10161;41.188;-8.642;2023-12-14T02:23:10;6.43;;;5.07;;
20000;SDS011;10161;41.188;-8.642;2023-12-14T02:25:37;5.97;;;5.37;;
20000;SDS011;10161;41.188;-8.642;2023-12-14T02:28:04;6.20;;;5.23;;
20000;SDS011;10161;41.188;-8.642;2023-12-14T02:30:31;4.97;;;4.37;;
20000;SDS011;10161;41.188;-8.642;2023-12-14T02:32:58;5.90;;;5.30;;
20000;SDS011;10161;41.188;-8.642;2023-12-14T02:35:25;5.73;;;5.13;;
20000;SDS011;10161;41.188;-8.642;2023-12-14T02:37:52;5.20;;;4.67;;
20000;SDS011;10161;41.188;-8.642;2023-12-14T02:40:20;6.17;;;5.23;;
20000;SDS011;10161;41.188;-8.642;2023-12-14T02:42:47;5.23;;;4.73;;
20000;SDS011;10161;41.188;-8.642;2023-12-14T02:45:14;5.70;;;5.00;;
20000;SDS011;10161;41.188;-8.642;2023-12-14T02:47:41;6.50;;;4.80;;
20000;SDS011;10161;41.188;-8.642;2023-12-14T02:50:08;6.67;;;5.73;;
20000;SDS011;10161;41.188;-8.642;2023-12-14T02:52:35;5.60;;;5.00;;
20000;SDS011;10161;41.188;-8.642;2023-12-14T02:55:02;4.70;;;4.10;;
20000;SDS011;10161;41.188;-8.642;2023-12-14T02:57:31;4.53;;;4.03;;
20000;SDS011;10161;41.188;-8.642;2023-12-14T02:59:58;5.57;;;5.00;;
20000;SDS011;10161;41.188;-8.642;2023-12-14T03:02:25;6.90;;;5.20;;
20000;SDS011;10161;41.188;-8.642;2023-12-14T03:04:51;4.90;;;4.40;;
20000;SDS011;10161;41.188;-8.642;2023-12-14T03:07:18;6.00;;;5.00;;
20000;SDS011;10161;41.188;-8.642;2023-12-14T03:09:45;4.83;;;4.27;;
20000;SDS011;10161;41.188;-8.642;2023-12-14T03:12:12;5.50;;;4.90;;
20000;SDS011;10161;41.188;-8.642;2023-12-14T03:14:41;5.13;;;4.63;;
20000;SDS011;10161;41.188;-8.642;2023-12-14T03:17:08;5.60;;;5.10;;
20000;SDS011;10161;41.188;-8.642;2023-12-14T03:19:38;5.70;;;4.83;;
20000;SDS011;10161;41.188;-8.642;2023-12-14T03:22:06;5.03;;;4.53;;
20000;SDS011;10161;41.188;-8.642;2023-12-14T03:24:34;6.10;;;4.93;;
20000;SDS011;10161;41.188;-8.642;2023-12-14T03:27:01;5.27;;;4.77;;
20000;SDS011;10161;41.188;-8.642;2023-12-14T03:29:35;4.87;;;4.37;;
20000;SDS011;10161;41.188;-8.642;2023-12-14T03:32:03;4.50;;;4.10;;
20000;SDS011;10161;41.188;-8.642;2023-12-14T03:34:31;5.23;;;4.63;;
20000;SDS011;10161;41.188;-8.642;2023-12-14T03:36:58;5.50;;;5.00;;
20000;SDS011;10161;41.188;-8.642;2023-12-14T03:39:33;5.57;;;5.07;;
20000;SDS011;10161;41.188;-8.642;2023-12-14T03:42:09;5.27;;;4.30;;
20000;SDS011;10161;41.188;-8.642;2023-12-14T03:44:37;4.70;;;4.23;;
20000;SDS011;10161;41.188;-8.642;2023-12-14T03:47:06;4.60;;;4.20;;
20000;SDS011;10161;41.188;-8.642;2023-12-14T03:49:36;5.10;;;4.60;;
20000;SDS011;10161;41.188;-8.642;2023-12-14T03:52:03;4.73;;;4.23;;
20000;SDS011;10161;41.188;-8.642;2023-12-14T03:54:30;7.40;;;4.77;;
20000;SDS011;10161;41.188;-8.642;2023-12-14T03:56:57;5.00;;;4.50;;
20000;SDS011;10161;41.188;-8.642;2023-12-14T03:59:24;6.00;;;4.60;;
20000;SDS011;10161;41.188;-8.642;2023-12-14T04:01:51;6.27;;;5.10;;
20000;SDS011;10161;41.188;-8.642;2023-12-14T04:04:20;6.10;;;4.60;;
20000;SDS011;10161;41.188;-8.642;2023-12-14T04:06:47;4.80;;;4.30;;
20000;SDS011;10161;41.188;-8.642;2023-12-14T04:09:14;4.73;;;4.27;;
20000;SDS011;10161;41.188;-8.642;2023-12-14T04:11:41;5.43;;;4.90;;
20000;SDS011;10161;41.188;-8.642;2023-12-14T04:14:08;5.63;;;4.80;;
20000;SDS011;10161;41.188;-8.642;2023-12-14T04:16:36;5.23;;;4.53;;
20000;SDS011;10161;41.188;-8.642;2023-12-14T04:19:03;4.70;;;3.90;;
20000;SDS011;10161;41.188;-8.642;2023-12-14T04:21:36;4.70;;;4.30;;
20000;SDS011;10161;41.188;-8.642;2023-12-14T04:24:03;4.27;;;3.87;;
20000;SDS011;10161;41.188;-8.642;2023-12-14T04:26:31;5.10;;;4.60;;
20000;SDS011;10161;41.188;-8.642;2023-12-14T04:28:58;4.53;;;4.13;;
20000;SDS011;10161;41.188;-8.642;2023-12-14T04:31:25;5.23;;;4.73;;
20000;SDS011;10161;41.188;-8.642;2023-12-14T04:33:51;5.17;;;4.67;;
20000;SDS011;10161;41.188;-8.642;2023-12-14T04:36:18;4.60;;;4.20;;
20000;SDS011;10161;41.188;-8.642;2023-12-14T04:38:47;4.20;;;3.80;;
20000;SDS011;10161;41.188;-8.642;2023-12-14T04:41:17;6.03;;;4.80;;
20000;SDS011;10161;41.188;-8.642;2023-12-14T04:43:47;5.57;;;4.37;;
20000;SDS011;10161;41.188;-8.642;2023-12-14T04:46:14;4.93;;;4.43;;
20000;SDS011;10161;41.188;-8.642;2023-12-14T04:48:41;4.87;;;4.37;;
20000;SDS011;10161;41.188;-8.642;2023-12-14T04:51:10;4.50;;;4.20;;
20000;SDS011;10161;41.188;-8.642;2023-12-14T04:53:38;4.63;;;4.20;;
20000;SDS011;10161;41.188;-8.642;2023-12-14T04:56:10;4.70;;;3.83;;
20000;SDS011;10161;41.188;-8.642;2023-12-14T04:58:38;4.40;;;4.00;;
20000;SDS011;10161;41.188;-8.642;2023-12-14T05:01:05;4.20;;;3.80;;
20000;SDS011;10161;41.188;-8.642;2023-12-14T05:03:34;4.60;;;4.00;;
20000;SDS011;10161;41.188;-8.642;2023-12-14T05:06:02;4.70;;;4.30;;
20000;SDS011;10161;41.188;-8.642;2023-12-14T05:08:30;3.90;;;3.50;;
20000;SDS011;10161;41.188;-8.642;2023-12-14T05:10:57;4.30;;;3.90;;
20000;SDS011;10161;41.188;-8.642;2023-12-14T05:13:25;4.77;;;4.13;;
20000;SDS011;10161;41.188;-8.642;2023-12-14T05:15:52;5.03;;;4.50;;
20000;SDS011;10161;41.188;-8.642;2023-12-14T05:18:21;4.30;;;3.90;;
20000;SDS011;10161;41.188;-8.642;2023-12-14T05:20:48;5.07;;;4.57;;
20000;SDS011;10161;41.188;-8.642;2023-12-14T05:23:15;5.13;;;4.57;;
20000;SDS011;10161;41.188;-8.642;2023-12-14T05:25:42;5.33;;;4.33;;
20000;SDS011;10161;41.188;-8.642;2023-12-14T05:28:09;4.70;;;4.20;;
20000;SDS011;10161;41.188;-8.642;2023-12-14T05:30:37;5.13;;;4.60;;
20000;SDS011;10161;41.188;-8.642;2023-12-14T05:33:04;4.20;;;3.80;;
20000;SDS011;10161;41.188;-8.642;2023-12-14T05:35:31;4.53;;;3.80;;
20000;SDS011;10161;41.188;-8.642;2023-12-14T05:37:58;4.50;;;4.10;;
20000;SDS011;10161;41.188;-8.642;2023-12-14T05:40:25;5.20;;;4.30;;
20000;SDS011;10161;41.188;-8.642;2023-12-14T05:42:52;4.90;;;4.40;;
20000;SDS011;10161;41.188;-8.642;2023-12-14T05:45:19;4.10;;;3.80;;
20000;SDS011;10161;41.188;-8.642;2023-12-14T05:47:47;4.50;;;3.97;;
20000;SDS011;10161;41.188;-8.642;2023-12-14T05:50:14;4.90;;;4.23;;
20000;SDS011;10161;41.188;-8.642;2023-12-14T05:52:41;4.50;;;4.10;;
20000;SDS011;10161;41.188;-8.642;2023-12-14T05:55:10;5.37;;;4.33;;
20000;SDS011;10161;41.188;-8.642;2023-12-14T05:57:37;4.90;;;4.40;;
20000;SDS011;10161;41.188;-8.642;2023-12-14T06:00:05;4.30;;;3.90;;
20000;SDS011;10161;41.188;-8.642;2023-12-14T06:02:33;4.00;;;3.60;;
20000;SDS011;10161;41.188;-8.642;2023-12-14T06:05:04;4.73;;;4.23;;
20000;SDS011;10161;41.188;-8.642;2023-12-14T06:07:32;4.03;;;3.63;;
20000;SDS011;10161;41.188;-8.642;2023-12-14T06:09:59;4.43;;;4.03;;
20000;SDS011;10161;41.188;-8.642;2023-12-14T06:12:26;4.90;;;4.40;;
20000;SDS011;10161;41.188;-8.642;2023-12-14T06:14:54;4.20;;;3.70;;
20000;SDS011;10161;41.188;-8.642;2023-12-14T06:17:20;3.87;;;3.47;;
20000;SDS011;10161;41.188;-8.642;2023-12-14T06:19:47;4.30;;;3.90;;
20000;SDS011;10161;41.188;-8.642;2023-12-14T06:22:16;5.10;;;4.57;;
20000;SDS011;10161;41.188;-8.642;2023-12-14T06:24:43;5.30;;;4.80;;
20000;SDS011;10161;41.188;-8.642;2023-12-14T06:27:10;5.30;;;4.47;;
20000;SDS011;10161;41.188;-8.642;2023-12-14T06:29:37;4.73;;;4.27;;
20000;SDS011;10161;41.188;-8.642;2023-12-14T06:32:05;5.23;;;4.73;;
20000;SDS011;10161;41.188;-8.642;2023-12-14T06:34:32;4.90;;;4.40;;
20000;SDS011;10161;41.188;-8.642;2023-12-14T06:36:59;4.37;;;3.97;;
20000;SDS011;10161;41.188;-8.642;2023-12-14T06:39:29;5.17;;;4.67;;
20000;SDS011;10161;41.188;-8.642;2023-12-14T06:41:56;4.80;;;4.30;;
20000;SDS011;10161;41.188;-8.642;2023-12-14T06:44:23;4.47;;;4.07;;
20000;SDS011;10161;41.188;-8.642;2023-12-14T06:46:51;5.10;;;4.60;;
20000;SDS011;10161;41.188;-8.642;2023-12-14T06:49:18;5.50;;;5.00;;
20000;SDS011;10161;41.188;-8.642;2023-12-14T06:51:45;5.00;;;4.50;;
20000;SDS011;10161;41.188;-8.642;2023-12-14T06:54:12;6.00;;;4.93;;
20000;SDS011;10161;41.188;-8.642;2023-12-14T06:56:40;6.03;;;5.43;;
20000;SDS011;10161;41.188;-8.642;2023-12-14T06:59:07;5.47;;;4.97;;
20000;SDS011;10161;41.188;-8.642;2023-12-14T07:01:34;5.90;;;5.40;;
20000;SDS011;10161;41.188;-8.642;2023-12-14T07:04:01;7.33;;;5.70;;
20000;SDS011;10161;41.188;-8.642;2023-12-14T07:06:32;6.10;;;5.50;;
20000;SDS011;10161;41.188;-8.642;2023-12-14T07:09:04;6.03;;;5.20;;
20000;SDS011;10161;41.188;-8.642;2023-12-14T07:11:31;6.10;;;5.50;;
20000;SDS011;10161;41.188;-8.642;2023-12-14T07:14:00;5.83;;;5.00;;
20000;SDS011;10161;41.188;-8.642;2023-12-14T07:16:27;5.23;;;4.73;;
20000;SDS011;10161;41.188;-8.642;2023-12-14T07:18:54;5.67;;;5.07;;
20000;SDS011;10161;41.188;-8.642;2023-12-14T07:21:21;5.30;;;4.80;;
20000;SDS011;10161;41.188;-8.642;2023-12-14T07:23:48;5.87;;;5.37;;
20000;SDS011;10161;41.188;-8.642;2023-12-14T07:26:15;5.73;;;5.20;;
20000;SDS011;10161;41.188;-8.642;2023-12-14T07:28:42;6.10;;;5.50;;
20000;SDS011;10161;41.188;-8.642;2023-12-14T07:31:10;6.00;;;5.43;;
20000;SDS011;10161;41.188;-8.642;2023-12-14T07:33:37;5.63;;;4.80;;
20000;SDS011;10161;41.188;-8.642;2023-12-14T07:36:04;4.93;;;4.50;;
20000;SDS011;10161;41.188;-8.642;2023-12-14T07:38:32;5.40;;;4.90;;
20000;SDS011;10161;41.188;-8.642;2023-12-14T07:40:59;5.43;;;4.93;;
20000;SDS011;10161;41.188;-8.642;2023-12-14T07:43:26;5.10;;;4.60;;
20000;SDS011;10161;41.188;-8.642;2023-12-14T07:45:53;5.70;;;4.60;;
20000;SDS011;10161;41.188;-8.642;2023-12-14T07:48:21;5.53;;;5.03;;
20000;SDS011;10161;41.188;-8.642;2023-12-14T07:50:48;4.80;;;4.40;;
20000;SDS011;10161;41.188;-8.642;2023-12-14T07:53:15;4.83;;;4.43;;
20000;SDS011;10161;41.188;-8.642;2023-12-14T07:55:42;5.20;;;4.77;;
20000;SDS011;10161;41.188;-8.642;2023-12-14T07:58:09;4.83;;;4.43;;
20000;SDS011;10161;41.188;-8.642;2023-12-14T08:00:36;5.07;;;4.63;;
20000;SDS011;10161;41.188;-8.642;2023-12-14T08:03:03;5.97;;;4.93;;
20000;SDS011;10161;41.188;-8.642;2023-12-14T08:05:32;5.47;;;4.97;;
20000;SDS011;10161;41.188;-8.642;2023-12-14T08:07:59;5.07;;;4.67;;
20000;SDS011;10161;41.188;-8.642;2023-12-14T08:10:25;7.67;;;5.00;;
20000;SDS011;10161;41.188;-8.642;2023-12-14T08:12:52;5.00;;;4.50;;
20000;SDS011;10161;41.188;-8.642;2023-12-14T08:15:19;6.23;;;5.23;;
20000;SDS011;10161;41.188;-8.642;2023-12-14T08:17:46;5.43;;;4.93;;
20000;SDS011;10161;41.188;-8.642;2023-12-14T08:20:13;5.63;;;5.13;;
20000;SDS011;10161;41.188;-8.642;2023-12-14T08:22:42;5.90;;;5.40;;
20000;SDS011;10161;41.188;-8.642;2023-12-14T08:25:11;6.00;;;4.87;;
20000;SDS011;10161;41.188;-8.642;2023-12-14T08:27:39;5.10;;;4.60;;
20000;SDS011;10161;41.188;-8.642;2023-12-14T08:30:07;6.20;;;5.07;;
20000;SDS011;10161;41.188;-8.642;2023-12-14T08:32:34;6.17;;;5.57;;
20000;SDS011;10161;41.188;-8.642;2023-12-14T08:35:01;5.47;;;4.97;;
20000;SDS011;10161;41.188;-8.642;2023-12-14T08:37:29;4.63;;;4.23;;
20000;SDS011;10161;41.188;-8.642;2023-12-14T08:39:57;5.17;;;4.77;;
20000;SDS011;10161;41.188;-8.642;2023-12-14T08:42:24;4.63;;;4.20;;
20000;SDS011;10161;41.188;-8.642;2023-12-14T08:44:51;5.00;;;4.50;;
20000;SDS011;10161;41.188;-8.642;2023-12-14T08:47:19;5.13;;;4.63;;
20000;SDS011;10161;41.188;-8.642;2023-12-14T08:49:46;5.30;;;4.80;;
20000;SDS011;10161;41.188;-8.642;2023-12-14T08:52:13;4.93;;;4.50;;
20000;SDS011;10161;41.188;-8.642;2023-12-14T08:54:40;5.13;;;4.63;;
20000;SDS011;10161;41.188;-8.642;2023-12-14T08:57:10;7.13;;;5.17;;
20000;SDS011;10161;41.188;-8.642;2023-12-14T08:59:37;5.00;;;4.60;;
20000;SDS011;10161;41.188;-8.642;2023-12-14T09:02:04;6.93;;;4.63;;
20000;SDS011;10161;41.188;-8.642;2023-12-14T09:04:31;5.07;;;4.57;;
20000;SDS011;10161;41.188;-8.642;2023-12-14T09:07:01;5.67;;;5.17;;
20000;SDS011;10161;41.188;-8.642;2023-12-14T09:09:29;5.07;;;4.57;;
20000;SDS011;10161;41.188;-8.642;2023-12-14T09:11:56;5.50;;;5.00;;
20000;SDS011;10161;41.188;-8.642;2023-12-14T09:14:25;5.63;;;4.93;;
20000;SDS011;10161;41.188;-8.642;2023-12-14T09:16:52;4.93;;;4.43;;
20000;SDS011;10161;41.188;-8.642;2023-12-14T09:19:18;6.30;;;5.30;;
20000;SDS011;10161;41.188;-8.642;2023-12-14T09:21:45;5.50;;;5.00;;
20000;SDS011;10161;41.188;-8.642;2023-12-14T09:24:12;5.40;;;4.67;;
20000;SDS011;10161;41.188;-8.642;2023-12-14T09:26:39;5.70;;;4.87;;
20000;SDS011;10161;41.188;-8.642;2023-12-14T09:29:06;5.63;;;5.03;;
20000;SDS011;10161;41.188;-8.642;2023-12-14T09:31:35;6.33;;;4.37;;
20000;SDS011;10161;41.188;-8.642;2023-12-14T09:34:02;5.00;;;4.33;;
20000;SDS011;10161;41.188;-8.642;2023-12-14T09:36:29;4.83;;;4.33;;
20000;SDS011;10161;41.188;-8.642;2023-12-14T09:38:56;5.13;;;4.63;;
20000;SDS011;10161;41.188;-8.642;2023-12-14T09:41:23;4.60;;;4.20;;
20000;SDS011;10161;41.188;-8.642;2023-12-14T09:43:50;5.90;;;4.67;;
20000;SDS011;10161;41.188;-8.642;2023-12-14T09:46:19;6.10;;;4.83;;
20000;SDS011;10161;41.188;-8.642;2023-12-14T09:48:49;4.47;;;4.03;;
20000;SDS011;10161;41.188;-8.642;2023-12-14T09:51:16;4.77;;;4.37;;
20000;SDS011;10161;41.188;-8.642;2023-12-14T09:53:43;4.40;;;4.00;;
20000;SDS011;10161;41.188;-8.642;2023-12-14T09:56:10;4.77;;;4.10;;
20000;SDS011;10161;41.188;-8.642;2023-12-14T09:58:37;4.77;;;3.77;;
20000;SDS011;10161;41.188;-8.642;2023-12-14T10:01:14;4.20;;;3.80;;
20000;SDS011;10161;41.188;-8.642;2023-12-14T10:03:49;3.83;;;3.50;;
20000;SDS011;10161;41.188;-8.642;2023-12-14T10:06:17;4.50;;;3.90;;
20000;SDS011;10161;41.188;-8.642;2023-12-14T10:08:49;4.80;;;4.00;;
20000;SDS011;10161;41.188;-8.642;2023-12-14T10:11:20;4.13;;;3.73;;
20000;SDS011;10161;41.188;-8.642;2023-12-14T10:13:47;4.03;;;3.63;;
20000;SDS011;10161;41.188;-8.642;2023-12-14T10:16:26;4.40;;;3.90;;
20000;SDS011;10161;41.188;-8.642;2023-12-14T10:18:55;4.23;;;3.70;;
20000;SDS011;10161;41.188;-8.642;2023-12-14T10:21:23;4.00;;;3.60;;
20000;SDS011;10161;41.188;-8.642;2023-12-14T10:23:50;4.40;;;3.60;;
20000;SDS011;10161;41.188;-8.642;2023-12-14T10:26:17;4.10;;;3.70;;
20000;SDS011;10161;41.188;-8.642;2023-12-14T10:28:44;6.50;;;3.47;;
20000;SDS011;10161;41.188;-8.642;2023-12-14T10:31:11;3.60;;;3.27;;
20000;SDS011;10161;41.188;-8.642;2023-12-14T10:33:38;3.90;;;3.50;;
20000;SDS011;10161;41.188;-8.642;2023-12-14T10:36:07;4.20;;;3.47;;
20000;SDS011;10161;41.188;-8.642;2023-12-14T10:38:35;4.10;;;3.60;;
20000;SDS011;10161;41.188;-8.642;2023-12-14T10:41:04;4.57;;;4.07;;
20000;SDS011;10161;41.188;-8.642;2023-12-14T10:43:33;4.80;;;3.67;;
20000;SDS011;10161;41.188;-8.642;2023-12-14T10:46:03;3.80;;;3.50;;
20000;SDS011;10161;41.188;-8.642;2023-12-14T10:48:31;3.57;;;3.27;;
20000;SDS011;10161;41.188;-8.642;2023-12-14T10:50:58;3.60;;;3.30;;
20000;SDS011;10161;41.188;-8.642;2023-12-14T10:53:30;3.60;;;3.13;;
20000;SDS011;10161;41.188;-8.642;2023-12-14T10:55:56;3.10;;;2.80;;
20000;SDS011;10161;41.188;-8.642;2023-12-14T10:58:25;4.67;;;4.07;;
20000;SDS011;10161;41.188;-8.642;2023-12-14T11:01:00;3.90;;;3.50;;
20000;SDS011;10161;41.188;-8.642;2023-12-14T11:03:32;3.87;;;3.57;;
20000;SDS011;10161;41.188;-8.642;2023-12-14T11:06:00;3.60;;;3.30;;
20000;SDS011;10161;41.188;-8.642;2023-12-14T11:08:27;4.27;;;3.90;;
20000;SDS011;10161;41.188;-8.642;2023-12-14T11:10:59;3.40;;;3.10;;
20000;SDS011;10161;41.188;-8.642;2023-12-14T11:13:35;4.30;;;3.30;;
20000;SDS011;10161;41.188;-8.642;2023-12-14T11:16:04;3.70;;;3.40;;
20000;SDS011;10161;41.188;-8.642;2023-12-14T11:18:31;3.57;;;3.23;;
20000;SDS011;10161;41.188;-8.642;2023-12-14T11:20:58;4.40;;;3.50;;
20000;SDS011;10161;41.188;-8.642;2023-12-14T11:23:27;3.70;;;3.30;;
20000;SDS011;10161;41.188;-8.642;2023-12-14T11:25:58;3.10;;;2.80;;
20000;SDS011;10161;41.188;-8.642;2023-12-14T11:28:28;3.00;;;2.70;;
20000;SDS011;10161;41.188;-8.642;2023-12-14T11:30:55;3.50;;;3.20;;
20000;SDS011;10161;41.188;-8.642;2023-12-14T11:33:22;3.30;;;3.00;;
20000;SDS011;10161;41.188;-8.642;2023-12-14T11:35:50;4.10;;;3.53;;
20000;SDS011;10161;41.188;-8.642;2023-12-14T11:38:19;2.73;;;2.53;;
20000;SDS011;10161;41.188;-8.642;2023-12-14T11:40:46;3.03;;;2.83;;
20000;SDS011;10161;41.188;-8.642;2023-12-14T11:43:15;5.80;;;2.70;;
20000;SDS011;10161;41.188;-8.642;2023-12-14T11:45:45;3.67;;;3.00;;
20000;SDS011;10161;41.188;-8.642;2023-12-14T11:48:12;3.63;;;2.80;;
20000;SDS011;10161;41.188;-8.642;2023-12-14T11:50:40;3.20;;;2.90;;
20000;SDS011;10161;41.188;-8.642;2023-12-14T11:53:08;3.23;;;2.90;;
20000;SDS011;10161;41.188;-8.642;2023-12-14T11:55:35;3.03;;;2.73;;
20000;SDS011;10161;41.188;-8.642;2023-12-14T11:58:03;2.90;;;2.70;;
20000;SDS011;10161;41.188;-8.642;2023-12-14T12:00:33;3.30;;;2.93;;
20000;SDS011;10161;41.188;-8.642;2023-12-14T12:03:13;2.63;;;2.43;;
20000;SDS011;10161;41.188;-8.642;2023-12-14T12:05:41;3.30;;;2.77;;
20000;SDS011;10161;41.188;-8.642;2023-12-14T12:08:10;2.90;;;2.53;;
20000;SDS011;10161;41.188;-8.642;2023-12-14T12:10:37;2.87;;;2.40;;
20000;SDS011;10161;41.188;-8.642;2023-12-14T12:13:05;3.07;;;2.77;;
20000;SDS011;10161;41.188;-8.642;2023-12-14T12:15:35;4.37;;;2.77;;
20000;SDS011;10161;41.188;-8.642;2023-12-14T12:18:03;2.80;;;2.50;;
20000;SDS011;10161;41.188;-8.642;2023-12-14T12:20:31;2.83;;;2.60;;
20000;SDS011;10161;41.188;-8.642;2023-12-14T12:22:58;2.30;;;2.10;;
20000;SDS011;10161;41.188;-8.642;2023-12-14T12:25:25;3.50;;;2.60;;
20000;SDS011;10161;41.188;-8.642;2023-12-14T12:27:53;2.37;;;2.17;;
20000;SDS011;10161;41.188;-8.642;2023-12-14T12:30:20;2.93;;;2.50;;
20000;SDS011;10161;41.188;-8.642;2023-12-14T12:32:49;3.97;;;2.47;;
20000;SDS011;10161;41.188;-8.642;2023-12-14T12:35:17;2.60;;;2.40;;
20000;SDS011;10161;41.188;-8.642;2023-12-14T12:37:44;3.20;;;2.47;;
20000;SDS011;10161;41.188;-8.642;2023-12-14T12:40:11;2.87;;;2.00;;
20000;SDS011;10161;41.188;-8.642;2023-12-14T12:42:41;2.50;;;2.30;;
20000;SDS011;10161;41.188;-8.642;2023-12-14T12:45:08;2.67;;;2.30;;
20000;SDS011;10161;41.188;-8.642;2023-12-14T12:47:36;2.30;;;2.10;;
20000;SDS011;10161;41.188;-8.642;2023-12-14T12:50:06;2.73;;;2.30;;
20000;SDS011;10161;41.188;-8.642;2023-12-14T12:52:34;2.50;;;2.30;;
20000;SDS011;10161;41.188;-8.642;2023-12-14T12:55:01;2.80;;;2.20;;
20000;SDS011;10161;41.188;-8.642;2023-12-14T12:57:28;3.27;;;2.47;;
20000;SDS011;10161;41.188;-8.642;2023-12-14T12:59:55;2.43;;;2.13;;
20000;SDS011;10161;41.188;-8.642;2023-12-14T13:02:22;3.90;;;2.40;;
20000;SDS011;10161;41.188;-8.642;2023-12-14T13:04:49;2.73;;;2.17;;
20000;SDS011;10161;41.188;-8.642;2023-12-14T13:07:18;2.10;;;2.00;;
20000;SDS011;10161;41.188;-8.642;2023-12-14T13:09:45;2.97;;;2.23;;
20000;SDS011;10161;41.188;-8.642;2023-12-14T13:12:12;2.50;;;2.20;;
20000;SDS011;10161;41.188;-8.642;2023-12-14T13:14:39;2.67;;;2.17;;
20000;SDS011;10161;41.188;-8.642;2023-12-14T13:17:06;3.07;;;2.60;;
20000;SDS011;10161;41.188;-8.642;2023-12-14T13:19:33;2.50;;;2.30;;
20000;SDS011;10161;41.188;-8.642;2023-12-14T13:22:00;2.30;;;1.97;;
20000;SDS011;10161;41.188;-8.642;2023-12-14T13:24:29;3.30;;;2.27;;
20000;SDS011;10161;41.188;-8.642;2023-12-14T13:26:56;2.97;;;2.10;;
20000;SDS011;10161;41.188;-8.642;2023-12-14T13:29:22;2.37;;;2.17;;
20000;SDS011;10161;41.188;-8.642;2023-12-14T13:31:49;2.50;;;2.23;;
20000;SDS011;10161;41.188;-8.642;2023-12-14T13:34:16;2.80;;;2.30;;
20000;SDS011;10161;41.188;-8.642;2023-12-14T13:36:46;2.30;;;2.10;;
20000;SDS011;10161;41.188;-8.642;2023-12-14T13:39:13;2.63;;;2.27;;
20000;SDS011;10161;41.188;-8.642;2023-12-14T13:41:41;2.00;;;1.90;;
20000;SDS011;10161;41.188;-8.642;2023-12-14T13:44:08;2.50;;;2.30;;
20000;SDS011;10161;41.188;-8.642;2023-12-14T13:46:35;2.07;;;1.80;;
20000;SDS011;10161;41.188;-8.642;2023-12-14T13:49:02;3.80;;;2.47;;
20000;SDS011;10161;41.188;-8.642;2023-12-14T13:51:29;1.93;;;1.70;;
20000;SDS011;10161;41.188;-8.642;2023-12-14T13:53:56;2.40;;;2.20;;
20000;SDS011;10161;41.188;-8.642;2023-12-14T13:56:23;2.60;;;2.40;;
20000;SDS011;10161;41.188;-8.642;2023-12-14T13:58:51;2.83;;;2.40;;
20000;SDS011;10161;41.188;-8.642;2023-12-14T14:01:18;2.23;;;2.03;;
20000;SDS011;10161;41.188;-8.642;2023-12-14T14:03:45;3.13;;;2.60;;
20000;SDS011;10161;41.188;-8.642;2023-12-14T14:06:13;3.70;;;2.80;;
20000;SDS011;10161;41.188;-8.642;2023-12-14T14:08:40;2.60;;;2.40;;
20000;SDS011;10161;41.188;-8.642;2023-12-14T14:11:07;2.63;;;2.43;;
20000;SDS011;10161;41.188;-8.642;2023-12-14T14:13:34;2.50;;;2.30;;
20000;SDS011;10161;41.188;-8.642;2023-12-14T14:16:02;3.33;;;2.27;;
20000;SDS011;10161;41.188;-8.642;2023-12-14T14:18:30;2.90;;;2.33;;
20000;SDS011;10161;41.188;-8.642;2023-12-14T14:20:57;2.30;;;2.10;;
20000;SDS011;10161;41.188;-8.642;2023-12-14T14:23:24;2.70;;;2.43;;
20000;SDS011;10161;41.188;-8.642;2023-12-14T14:25:51;2.40;;;2.20;;
20000;SDS011;10161;41.188;-8.642;2023-12-14T14:28:19;2.70;;;2.40;;
20000;SDS011;10161;41.188;-8.642;2023-12-14T14:30:47;2.70;;;2.50;;
20000;SDS011;10161;41.188;-8.642;2023-12-14T14:33:15;2.97;;;2.77;;
20000;SDS011;10161;41.188;-8.642;2023-12-14T14:35:44;2.00;;;1.90;;